Austin, Pennsylvania
Current Conditions -  °F | °C
As of 10:01 AM on Monday 24 Nov 2014 (Local Time) from KBFD Reporting Station
Overcast Overcast  
Wind Chill: 14°   Ceiling: 3000
Heat Index: 14°   Visibility: 10mi
Dew Point:   Wind: 9mph
Humidity: 72%   Direction: 180°S
Pressure: 29.43"   Gusts: 29mph
Location:  41.63°N, 78.09°W
Report Text: KBFD 241501Z AUTO 18008G25KT 150V220 10SM FEW022 BKN030 OVC039 14/09 A2943 RMK AO2 T01440094
Loading
Personal Weather Stations






























Interactive Weather Map New forecast layout! Learn more

10-Day Weather Forecast

Advertisements
Track Severe Weather on mobile